Lauderdale Isles, Florida
Current Conditions -  °F | °C
As of 2:53 PM on Saturday 25 Oct 2014 (Local Time) from KFLL Reporting Station
Scattered Clouds Scattered Clouds  
Wind Chill: 83°   Ceiling: Unl
Heat Index: 84°   Visibility: 10mi
Dew Point: 63°   Wind: 14mph
Humidity: 51%   Direction: 50°NE
Pressure: 29.87"   Gusts: NA
Location:  26.0861°N, 80.1822°W
Report Text: KFLL 251853Z 05012KT 10SM SCT055 28/17 A2987 RMK AO2 SLP114 T02830172
Loading
Personal Weather Stations






























Interactive Weather Map
Tropical Storm Tracking
New forecast layout! Learn more

10-Day Weather Forecast

Advertisements
Track Severe Weather on mobile